createdAt,value
2019-03-12T00:00:35.621Z,101015.23
2019-03-12T00:01:14.275Z,101007.53
2019-03-12T00:01:49.664Z,101018.22
2019-03-12T00:02:25.598Z,101015.66
2019-03-12T00:03:01.041Z,101024.61
2019-03-12T00:03:36.500Z,101026.73
2019-03-12T00:04:11.898Z,101025.86
2019-03-12T00:04:47.538Z,101020.76
2019-03-12T00:05:22.942Z,101027.58
2019-03-12T00:05:58.354Z,101036.94
2019-03-12T00:06:33.871Z,101036.95
2019-03-12T00:07:09.261Z,101035.25
2019-03-12T00:07:45.415Z,101041.64
2019-03-12T00:08:21.108Z,101037.39
2019-03-12T00:08:56.745Z,101036.53
2019-03-12T00:09:32.173Z,101038.23
2019-03-12T00:10:08.154Z,101045.06
2019-03-12T00:10:43.506Z,101051.02
2019-03-12T00:11:18.897Z,101059.96
2019-03-12T00:11:54.292Z,101058.28
2019-03-12T00:12:29.671Z,101068.53
2019-03-12T00:13:05.403Z,101062.11
2019-03-12T00:13:40.845Z,101057.83
2019-03-12T00:14:16.784Z,101064.20
2019-03-12T00:14:52.266Z,101067.57
2019-03-12T00:15:27.659Z,101061.58
2019-03-12T00:16:03.194Z,101068.84
2019-03-12T00:16:38.833Z,101063.70
2019-03-12T00:17:14.222Z,101069.63
2019-03-12T00:17:49.879Z,101060.22
2019-03-12T00:18:28.266Z,101072.18
2019-03-12T00:19:02.935Z,101067.95
2019-03-12T00:19:38.383Z,101065.39
2019-03-12T00:20:16.121Z,101060.22
2019-03-12T00:20:51.505Z,101067.87
2019-03-12T00:21:27.440Z,101069.99
2019-03-12T00:22:03.294Z,101073.45
2019-03-12T00:22:38.938Z,101075.11
2019-03-12T00:23:14.581Z,101070.38
2019-03-12T00:23:50.249Z,101074.63
2019-03-12T00:24:25.647Z,101070.84
2019-03-12T00:25:01.105Z,101066.97
2019-03-12T00:25:37.681Z,101062.69
2019-03-12T00:26:13.080Z,101060.55
2019-03-12T00:26:48.717Z,101060.97
2019-03-12T00:27:24.115Z,101057.52
2019-03-12T00:27:59.874Z,101057.98
2019-03-12T00:28:35.351Z,101065.26
2019-03-12T00:29:11.008Z,101062.71
2019-03-12T00:29:46.411Z,101060.56
2019-03-12T00:30:21.926Z,101059.72
2019-03-12T00:30:57.338Z,101058.02
2019-03-12T00:31:32.765Z,101061.47
2019-03-12T00:32:08.478Z,101060.62
2019-03-12T00:32:44.426Z,101055.92
2019-03-12T00:33:20.093Z,101055.52
2019-03-12T00:33:55.788Z,101059.78
2019-03-12T00:34:31.256Z,101055.92
2019-03-12T00:35:06.727Z,101053.75
2019-03-12T00:35:42.212Z,101052.45
2019-03-12T00:36:17.628Z,101045.66
2019-03-12T00:36:53.051Z,101049.05
2019-03-12T00:37:28.465Z,101051.61
2019-03-12T00:38:03.903Z,101048.62
2019-03-12T00:38:39.343Z,101049.50
2019-03-12T00:39:14.966Z,101049.05
2019-03-12T00:39:50.663Z,101047.34
2019-03-12T00:40:26.331Z,101045.59
2019-03-12T00:41:01.788Z,101051.59
2019-03-12T00:41:38.800Z,101050.70
2019-03-12T00:42:14.700Z,101038.76
2019-03-12T00:42:50.088Z,101042.22
2019-03-12T00:43:25.472Z,101042.28
2019-03-12T00:44:01.237Z,101040.54
2019-03-12T00:44:37.098Z,101040.52
2019-03-12T00:45:12.796Z,101039.20
2019-03-12T00:45:48.735Z,101036.23
2019-03-12T00:46:26.966Z,101032.81
2019-03-12T00:47:01.290Z,101039.72
2019-03-12T00:47:36.703Z,101037.98
2019-03-12T00:48:12.370Z,101038.02
2019-03-12T00:48:48.678Z,101044.81
2019-03-12T00:49:24.067Z,101040.53
2019-03-12T00:49:59.479Z,101039.30
2019-03-12T00:50:34.909Z,101039.70
2019-03-12T00:51:10.543Z,101038.81
2019-03-12T00:51:46.179Z,101042.20
2019-03-12T00:52:21.662Z,101038.73
2019-03-12T00:52:57.366Z,101040.86
2019-03-12T00:53:32.804Z,101045.12
2019-03-12T00:54:08.560Z,101046.45
2019-03-12T00:54:43.948Z,101047.73
2019-03-12T00:55:19.597Z,101045.19
2019-03-12T00:55:54.989Z,101046.92
2019-03-12T00:56:31.859Z,101046.94
2019-03-12T00:57:07.304Z,101044.81
2019-03-12T00:57:42.949Z,101049.93
2019-03-12T00:58:18.490Z,101046.93
2019-03-12T00:58:53.929Z,101060.53
2019-03-12T00:59:29.910Z,101059.19
2019-03-12T01:00:06.673Z,101052.80
2019-03-12T01:00:42.309Z,101057.88
2019-03-12T01:01:17.946Z,101062.20
2019-03-12T01:01:53.347Z,101057.47
2019-03-12T01:02:28.749Z,101062.59
2019-03-12T01:03:04.947Z,101066.97
2019-03-12T01:03:40.377Z,101070.33
2019-03-12T01:04:16.027Z,101070.70
2019-03-12T01:04:51.406Z,101068.11
2019-03-12T01:05:26.802Z,101063.50
2019-03-12T01:06:02.240Z,101070.74
2019-03-12T01:06:37.673Z,101070.69
2019-03-12T01:07:13.078Z,101077.46
2019-03-12T01:07:48.478Z,101073.30
2019-03-12T01:08:24.504Z,101077.11
2019-03-12T01:09:00.233Z,101078.79
2019-03-12T01:09:39.161Z,101076.18
2019-03-12T01:10:15.053Z,101080.94
2019-03-12T01:10:50.709Z,101073.67
2019-03-12T01:11:26.135Z,101073.28
2019-03-12T01:12:01.572Z,101065.62
2019-03-12T01:12:37.216Z,101069.42
2019-03-12T01:13:15.995Z,101066.00
2019-03-12T01:13:51.479Z,101069.81
2019-03-12T01:14:27.123Z,101068.48
2019-03-12T01:15:02.544Z,101061.23
2019-03-12T01:15:38.654Z,101058.62
2019-03-12T01:16:14.042Z,101060.36
2019-03-12T01:16:49.445Z,101058.61
2019-03-12T01:17:24.851Z,101056.10
2019-03-12T01:18:00.373Z,101055.70
2019-03-12T01:18:36.717Z,101048.84
2019-03-12T01:19:12.406Z,101054.77
2019-03-12T01:19:47.810Z,101045.83
2019-03-12T01:20:23.200Z,101049.20
2019-03-12T01:20:58.966Z,101052.58
2019-03-12T01:21:34.939Z,101050.90
2019-03-12T01:22:10.590Z,101053.03
2019-03-12T01:22:45.972Z,101050.84
2019-03-12T01:23:21.614Z,101056.83
2019-03-12T01:23:57.307Z,101047.89
2019-03-12T01:24:32.863Z,101056.43
2019-03-12T01:25:09.134Z,101055.53
2019-03-12T01:25:44.534Z,101052.59
2019-03-12T01:26:19.916Z,101056.42
2019-03-12T01:26:55.345Z,101055.59
2019-03-12T01:27:31.324Z,101056.42
2019-03-12T01:28:06.786Z,101051.77
2019-03-12T01:28:42.191Z,101050.91
2019-03-12T01:29:17.610Z,101053.03
2019-03-12T01:29:53.309Z,101058.60
2019-03-12T01:30:28.743Z,101051.81
2019-03-12T01:31:04.147Z,101057.33
2019-03-12T01:31:39.823Z,101050.59
2019-03-12T01:32:15.462Z,101052.63
2019-03-12T01:32:50.852Z,101059.52
2019-03-12T01:33:26.239Z,101059.17
2019-03-12T01:34:01.928Z,101053.17
2019-03-12T01:34:37.612Z,101056.17
2019-03-12T01:35:13.141Z,101056.66
2019-03-12T01:35:48.797Z,101057.85
2019-03-12T01:36:24.507Z,101053.51
2019-03-12T01:36:59.958Z,101063.73
2019-03-12T01:37:35.738Z,101064.59
2019-03-12T01:38:11.406Z,101062.91
2019-03-12T01:38:47.410Z,101062.07
2019-03-12T01:39:22.877Z,101069.73
2019-03-12T01:39:58.570Z,101072.70
2019-03-12T01:40:33.986Z,101078.19
2019-03-12T01:41:09.735Z,101074.43
2019-03-12T01:41:45.397Z,101076.12
2019-03-12T01:42:21.057Z,101075.22
2019-03-12T01:42:56.426Z,101079.96
2019-03-12T01:43:32.187Z,101078.70
2019-03-12T01:44:07.948Z,101073.64
2019-03-12T01:44:43.577Z,101084.36
2019-03-12T01:45:18.971Z,101073.63
2019-03-12T01:45:54.360Z,101076.20
2019-03-12T01:46:30.027Z,101074.91
2019-03-12T01:47:05.494Z,101084.78
2019-03-12T01:47:41.004Z,101081.33
2019-03-12T01:48:16.652Z,101088.22
2019-03-12T01:48:52.138Z,101076.78
2019-03-12T01:49:27.895Z,101080.13
2019-03-12T01:50:03.565Z,101083.17
2019-03-12T01:50:39.526Z,101085.28
2019-03-12T01:51:15.159Z,101085.69
2019-03-12T01:51:50.655Z,101089.56
2019-03-12T01:52:26.402Z,101079.26
2019-03-12T01:53:01.894Z,101089.17
2019-03-12T01:53:37.894Z,101085.72
2019-03-12T01:54:13.319Z,101093.01
2019-03-12T01:54:48.828Z,101090.89
2019-03-12T01:55:24.208Z,101089.98
2019-03-12T01:56:00.527Z,101083.58
2019-03-12T01:56:36.226Z,101090.84
2019-03-12T01:57:11.612Z,101083.14
2019-03-12T01:57:47.272Z,101098.08
2019-03-12T01:58:22.671Z,101095.09
2019-03-12T01:58:58.342Z,101094.60
2019-03-12T01:59:33.927Z,101102.29
2019-03-12T02:00:11.523Z,101096.31
2019-03-12T02:00:46.932Z,101103.60
2019-03-12T02:01:22.346Z,101099.31
2019-03-12T02:01:57.752Z,101093.34
2019-03-12T02:02:33.489Z,101094.62
2019-03-12T02:03:08.879Z,101093.41
2019-03-12T02:03:44.305Z,101094.24
2019-03-12T02:04:19.721Z,101098.03
2019-03-12T02:04:55.114Z,101095.91
2019-03-12T02:05:30.590Z,101097.20
2019-03-12T02:06:06.129Z,101102.73
2019-03-12T02:06:41.515Z,101098.02
2019-03-12T02:07:17.213Z,101094.55
2019-03-12T02:07:52.638Z,101094.98
2019-03-12T02:08:28.057Z,101103.46
2019-03-12T02:09:05.036Z,101095.48
2019-03-12T02:09:40.460Z,101099.66
2019-03-12T02:10:16.416Z,101097.49
2019-03-12T02:10:51.814Z,101093.74
2019-03-12T02:11:27.345Z,101102.20
2019-03-12T02:12:02.905Z,101095.36
2019-03-12T02:12:38.316Z,101100.03
2019-03-12T02:13:13.966Z,101101.27
2019-03-12T02:13:49.692Z,101094.83
2019-03-12T02:14:29.935Z,101091.47
2019-03-12T02:15:07.015Z,101097.84
2019-03-12T02:15:42.415Z,101095.27
2019-03-12T02:16:18.062Z,101090.61
2019-03-12T02:16:53.724Z,101094.98
2019-03-12T02:17:29.141Z,101086.83
2019-03-12T02:18:04.574Z,101088.56
2019-03-12T02:18:40.200Z,101089.03
2019-03-12T02:19:15.629Z,101087.70
2019-03-12T02:19:51.307Z,101081.78
2019-03-12T02:20:26.766Z,101081.72
2019-03-12T02:21:02.278Z,101081.31
2019-03-12T02:21:37.667Z,101080.40
2019-03-12T02:22:13.058Z,101079.89
2019-03-12T02:22:48.704Z,101075.23
2019-03-12T02:23:24.095Z,101081.97
2019-03-12T02:23:59.812Z,101079.45
2019-03-12T02:24:35.264Z,101075.58
2019-03-12T02:25:11.964Z,101082.03
2019-03-12T02:25:47.441Z,101074.28
2019-03-12T02:26:23.103Z,101078.01
2019-03-12T02:26:58.512Z,101072.52
2019-03-12T02:27:33.977Z,101063.95
2019-03-12T02:28:09.369Z,101075.50
2019-03-12T02:28:45.325Z,101074.60
2019-03-12T02:29:21.407Z,101079.75
2019-03-12T02:29:57.050Z,101073.83
2019-03-12T02:30:32.554Z,101071.64
2019-03-12T02:31:07.169Z,101072.98
2019-03-12T02:31:42.515Z,101069.06
2019-03-12T02:32:18.147Z,101084.31
2019-03-12T02:32:54.263Z,101076.64
2019-03-12T02:33:29.993Z,101078.32
2019-03-12T02:34:05.545Z,101079.12
2019-03-12T02:34:41.266Z,101083.42
2019-03-12T02:35:16.764Z,101086.41
2019-03-12T02:35:52.130Z,101086.07
2019-03-12T02:36:27.777Z,101088.19
2019-03-12T02:37:03.219Z,101083.91
2019-03-12T02:37:38.619Z,101077.53
2019-03-12T02:38:14.364Z,101086.41
2019-03-12T02:38:49.761Z,101085.09
2019-03-12T02:39:25.168Z,101081.23
2019-03-12T02:40:00.836Z,101083.08
2019-03-12T02:40:36.519Z,101089.42
2019-03-12T02:41:11.898Z,101088.58
2019-03-12T02:41:47.287Z,101080.42
2019-03-12T02:42:22.693Z,101081.25
2019-03-12T02:42:58.099Z,101092.30
2019-03-12T02:43:33.894Z,101082.08
2019-03-12T02:44:09.287Z,101091.05
2019-03-12T02:44:44.703Z,101092.73
2019-03-12T02:45:20.084Z,101089.39
2019-03-12T02:45:55.736Z,101097.03
2019-03-12T02:46:31.744Z,101095.73
2019-03-12T02:47:07.409Z,101105.06
2019-03-12T02:47:43.207Z,101100.34
2019-03-12T02:48:18.604Z,101099.07
2019-03-12T02:48:54.253Z,101103.44
2019-03-12T02:49:29.707Z,101094.64
2019-03-12T02:50:05.924Z,101099.31
2019-03-12T02:50:41.957Z,101092.92
2019-03-12T02:51:17.291Z,101096.40
2019-03-12T02:51:52.690Z,101087.47
2019-03-12T02:52:28.342Z,101100.25
2019-03-12T02:53:03.765Z,101093.92
2019-03-12T02:53:39.423Z,101098.23
2019-03-12T02:54:15.055Z,101088.02
2019-03-12T02:54:50.818Z,101095.22
2019-03-12T02:55:26.214Z,101087.16
2019-03-12T02:56:02.230Z,101090.52
2019-03-12T02:56:37.596Z,101091.30
2019-03-12T02:57:13.236Z,101086.64
2019-03-12T02:57:48.663Z,101080.67
2019-03-12T02:58:24.092Z,101086.97
2019-03-12T02:58:59.560Z,101080.56
2019-03-12T02:59:34.997Z,101077.95
2019-03-12T03:00:20.102Z,101078.81
2019-03-12T03:00:55.814Z,101071.09
2019-03-12T03:01:31.216Z,101062.64
2019-03-12T03:02:06.930Z,101063.52
2019-03-12T03:02:42.401Z,101061.38
2019-03-12T03:03:17.798Z,101059.25
2019-03-12T03:03:53.513Z,101063.06
2019-03-12T03:04:29.243Z,101056.67
2019-03-12T03:05:04.827Z,101048.14
2019-03-12T03:05:50.731Z,101059.16
2019-03-12T03:06:30.821Z,101068.53
2019-03-12T03:07:12.399Z,101056.14
2019-03-12T03:07:55.234Z,101062.55
2019-03-12T03:08:32.910Z,101050.72
2019-03-12T03:09:08.320Z,101069.38
2019-03-12T03:09:43.800Z,101067.66
2019-03-12T03:10:19.225Z,101062.53
2019-03-12T03:10:54.867Z,101068.13
2019-03-12T03:11:30.654Z,101061.42
2019-03-12T03:12:06.078Z,101071.98
2019-03-12T03:12:41.483Z,101068.94
2019-03-12T03:13:16.894Z,101072.80
2019-03-12T03:13:52.275Z,101061.76
2019-03-12T03:14:39.173Z,101072.02
2019-03-12T03:15:19.441Z,101074.47
2019-03-12T03:15:54.965Z,101074.53
2019-03-12T03:16:30.710Z,101075.88
2019-03-12T03:17:07.285Z,101072.96
2019-03-12T03:17:42.913Z,101087.41
2019-03-12T03:18:18.344Z,101092.01
2019-03-12T03:18:53.732Z,101090.25
2019-03-12T03:19:29.442Z,101089.42
2019-03-12T03:20:05.437Z,101088.52
2019-03-12T03:20:40.894Z,101089.47
2019-03-12T03:21:16.357Z,101090.44
2019-03-12T03:21:51.982Z,101088.36
2019-03-12T03:22:27.611Z,101089.61
2019-03-12T03:23:03.026Z,101083.24
2019-03-12T03:23:38.427Z,101090.36
2019-03-12T03:24:13.821Z,101079.36
2019-03-12T03:24:49.457Z,101091.66
2019-03-12T03:25:24.850Z,101093.77
2019-03-12T03:26:00.279Z,101090.36
2019-03-12T03:26:35.697Z,101088.30
2019-03-12T03:27:11.083Z,101076.31
2019-03-12T03:27:46.464Z,101086.47
2019-03-12T03:28:22.118Z,101091.13
2019-03-12T03:28:57.819Z,101092.43
2019-03-12T03:29:33.553Z,101082.98
2019-03-12T03:30:12.854Z,101091.48
2019-03-12T03:30:48.700Z,101085.95
2019-03-12T03:31:24.424Z,101091.48
2019-03-12T03:32:00.192Z,101085.96
2019-03-12T03:32:35.661Z,101087.66
2019-03-12T03:33:11.070Z,101091.48
2019-03-12T03:33:46.441Z,101086.97
2019-03-12T03:34:27.337Z,101090.73
2019-03-12T03:34:58.952Z,101088.63
2019-03-12T03:35:34.398Z,101089.06
2019-03-12T03:36:09.761Z,101089.91
2019-03-12T03:36:45.146Z,101083.55
2019-03-12T03:37:20.798Z,101087.28
2019-03-12T03:37:56.200Z,101087.70
2019-03-12T03:38:32.042Z,101092.37
2019-03-12T03:39:07.507Z,101093.64
2019-03-12T03:39:43.155Z,101093.73
2019-03-12T03:40:19.671Z,101093.73
2019-03-12T03:40:55.449Z,101091.55
2019-03-12T03:41:34.520Z,101092.44
2019-03-12T03:42:08.474Z,101091.55
2019-03-12T03:42:43.866Z,101090.30
2019-03-12T03:43:19.573Z,101089.53
2019-03-12T03:43:54.943Z,101086.48
2019-03-12T03:44:30.621Z,101092.04
2019-03-12T03:45:06.511Z,101080.02
2019-03-12T03:45:42.161Z,101087.25
2019-03-12T03:46:17.829Z,101085.94
2019-03-12T03:46:53.498Z,101090.20
2019-03-12T03:47:29.244Z,101086.39
2019-03-12T03:48:05.132Z,101080.08
2019-03-12T03:48:40.702Z,101079.17
2019-03-12T03:49:16.352Z,101082.08
2019-03-12T03:49:51.744Z,101074.82
2019-03-12T03:50:27.152Z,101079.17
2019-03-12T03:51:02.638Z,101076.20
2019-03-12T03:51:38.677Z,101082.13
2019-03-12T03:52:14.055Z,101077.38
2019-03-12T03:52:49.858Z,101072.39
2019-03-12T03:53:25.259Z,101066.51
2019-03-12T03:54:00.677Z,101076.64
2019-03-12T03:54:36.388Z,101074.92
2019-03-12T03:55:13.510Z,101073.54
2019-03-12T03:55:48.904Z,101075.76
2019-03-12T03:56:24.304Z,101068.96
2019-03-12T03:57:00.035Z,101064.59
2019-03-12T03:57:35.448Z,101072.22
2019-03-12T03:58:10.828Z,101068.86
2019-03-12T03:58:46.210Z,101060.37
2019-03-12T03:59:21.613Z,101067.15
2019-03-12T03:59:56.994Z,101068.08
2019-03-12T04:00:32.487Z,101065.92
2019-03-12T04:01:07.899Z,101065.03
2019-03-12T04:01:43.863Z,101066.31
2019-03-12T04:02:19.506Z,101056.96
2019-03-12T04:02:54.903Z,101059.92
2019-03-12T04:03:30.609Z,101062.84
2019-03-12T04:04:06.285Z,101060.75
2019-03-12T04:04:41.663Z,101055.19
2019-03-12T04:05:17.292Z,101065.44
2019-03-12T04:05:52.695Z,101063.22
2019-03-12T04:06:28.355Z,101065.88
2019-03-12T04:07:03.781Z,101061.69
2019-03-12T04:07:39.457Z,101063.76
2019-03-12T04:08:15.147Z,101056.96
2019-03-12T04:08:50.540Z,101055.22
2019-03-12T04:09:26.201Z,101058.23
2019-03-12T04:10:01.701Z,101056.55
2019-03-12T04:10:37.167Z,101044.88
2019-03-12T04:11:12.861Z,101050.87
2019-03-12T04:11:48.234Z,101049.16
2019-03-12T04:12:23.628Z,101053.42
2019-03-12T04:12:59.035Z,101049.23
2019-03-12T04:13:34.819Z,101050.57
2019-03-12T04:14:10.201Z,101040.70
2019-03-12T04:14:46.174Z,101042.02
2019-03-12T04:15:21.590Z,101045.39
2019-03-12T04:15:56.990Z,101050.11
2019-03-12T04:16:32.418Z,101044.52
2019-03-12T04:17:07.834Z,101040.25
2019-03-12T04:17:43.531Z,101042.34
2019-03-12T04:18:19.223Z,101044.08
2019-03-12T04:18:54.898Z,101050.57
2019-03-12T04:19:30.576Z,101047.94
2019-03-12T04:20:06.368Z,101049.28
2019-03-12T04:20:41.778Z,101036.95
2019-03-12T04:21:17.441Z,101037.79
2019-03-12T04:21:52.842Z,101038.23
2019-03-12T04:22:28.530Z,101040.41
2019-03-12T04:23:04.089Z,101039.48
2019-03-12T04:23:39.746Z,101034.88
2019-03-12T04:24:15.124Z,101038.23
2019-03-12T04:24:50.525Z,101051.41
2019-03-12T04:25:26.149Z,101046.68
2019-03-12T04:26:01.939Z,101046.63
2019-03-12T04:26:37.429Z,101044.19
2019-03-12T04:27:13.047Z,101050.18
2019-03-12T04:27:48.703Z,101057.80
2019-03-12T04:28:24.635Z,101048.02
2019-03-12T04:29:00.070Z,101045.00
2019-03-12T04:29:35.617Z,101052.23
2019-03-12T04:30:11.940Z,101045.89
2019-03-12T04:30:47.657Z,101047.18
2019-03-12T04:31:23.134Z,101042.08
2019-03-12T04:31:59.201Z,101053.59
2019-03-12T04:32:35.083Z,101045.53
2019-03-12T04:33:40.954Z,101041.70
2019-03-12T04:34:25.054Z,101052.27
2019-03-12T04:35:00.498Z,101053.92
2019-03-12T04:35:35.896Z,101047.52
2019-03-12T04:36:11.339Z,101054.32
2019-03-12T04:36:47.853Z,101053.87
2019-03-12T04:37:23.194Z,101045.33
2019-03-12T04:37:58.593Z,101051.69
2019-03-12T04:38:34.588Z,101050.95
2019-03-12T04:39:10.000Z,101049.65
2019-03-12T04:39:45.670Z,101047.95
2019-03-12T04:40:21.087Z,101044.10
2019-03-12T04:40:56.490Z,101047.09
2019-03-12T04:41:32.002Z,101045.35
2019-03-12T04:42:07.429Z,101038.99
2019-03-12T04:42:42.898Z,101043.63
2019-03-12T04:43:18.306Z,101039.87
2019-03-12T04:43:53.774Z,101044.03
2019-03-12T04:44:29.489Z,101042.35
2019-03-12T04:45:05.839Z,101036.39
2019-03-12T04:45:41.259Z,101021.58
2019-03-12T04:46:16.921Z,101032.63
2019-03-12T04:46:52.361Z,101030.08
2019-03-12T04:47:27.999Z,101021.55
2019-03-12T04:48:03.414Z,101032.19
2019-03-12T04:48:39.413Z,101033.44
2019-03-12T04:49:15.073Z,101021.14
2019-03-12T04:49:50.710Z,101012.59
2019-03-12T04:50:26.400Z,101019.86
2019-03-12T04:51:01.934Z,101017.30
2019-03-12T04:51:37.341Z,101020.36
2019-03-12T04:52:13.008Z,101017.36
2019-03-12T04:52:48.399Z,101016.95
2019-03-12T04:53:24.063Z,101010.48
2019-03-12T04:53:59.475Z,101014.71
2019-03-12T04:54:35.413Z,101011.77
2019-03-12T04:55:11.058Z,101015.55
2019-03-12T04:55:46.770Z,101009.61
2019-03-12T04:56:22.204Z,101016.89
2019-03-12T04:56:58.214Z,101012.64
2019-03-12T04:57:33.717Z,101013.48
2019-03-12T04:58:09.153Z,101011.32
2019-03-12T04:58:44.843Z,101011.77
2019-03-12T04:59:20.232Z,101011.72
2019-03-12T04:59:55.929Z,101009.19
2019-03-12T05:00:31.383Z,101003.70
2019-03-12T05:01:06.931Z,101010.48
2019-03-12T05:01:42.328Z,101010.09
2019-03-12T05:02:17.712Z,101006.67
2019-03-12T05:02:53.117Z,101011.74
2019-03-12T05:03:28.507Z,101002.34
2019-03-12T05:04:04.278Z,101025.34
2019-03-12T05:04:39.664Z,101011.72
2019-03-12T05:05:15.039Z,101011.36
2019-03-12T05:05:50.413Z,101010.99
2019-03-12T05:06:25.829Z,101015.31
2019-03-12T05:07:01.242Z,101003.31
2019-03-12T05:07:36.882Z,101008.50
2019-03-12T05:08:12.531Z,101011.09
2019-03-12T05:08:48.186Z,101007.18
2019-03-12T05:09:23.701Z,101008.48
2019-03-12T05:09:59.341Z,101009.87
2019-03-12T05:10:35.077Z,101004.30
2019-03-12T05:11:10.548Z,100998.64
2019-03-12T05:11:46.241Z,101005.84
2019-03-12T05:12:21.705Z,100997.34
2019-03-12T05:12:57.102Z,100996.52
2019-03-12T05:13:32.510Z,100997.36
2019-03-12T05:14:43.298Z,101001.25
2019-03-12T05:15:18.958Z,101002.53
2019-03-12T05:15:54.600Z,101001.15
2019-03-12T05:16:30.289Z,100999.98
2019-03-12T05:17:10.798Z,100996.11
2019-03-12T05:17:46.625Z,100990.06
2019-03-12T05:18:22.132Z,100989.66
2019-03-12T05:18:57.546Z,100991.84
2019-03-12T05:19:33.264Z,100991.39
2019-03-12T05:20:11.047Z,100990.08
2019-03-12T05:20:46.480Z,100985.41
2019-03-12T05:21:21.901Z,100990.13
2019-03-12T05:21:57.293Z,100981.20
2019-03-12T05:22:32.962Z,100983.80
2019-03-12T05:23:08.650Z,100986.33
2019-03-12T05:23:44.618Z,100978.61
2019-03-12T05:24:20.265Z,100985.34
2019-03-12T05:24:55.656Z,100983.20
2019-03-12T05:25:31.105Z,100978.98
2019-03-12T05:26:06.816Z,100988.86
2019-03-12T05:26:42.696Z,100988.05
2019-03-12T05:27:18.401Z,100987.17
2019-03-12T05:27:54.041Z,100987.19
2019-03-12T05:28:29.514Z,100978.61
2019-03-12T05:29:05.089Z,100985.39
2019-03-12T05:29:40.459Z,100984.95
2019-03-12T05:30:16.640Z,100986.64
2019-03-12T05:30:52.076Z,100990.48
2019-03-12T05:31:27.502Z,100990.12
2019-03-12T05:32:02.916Z,100990.59
2019-03-12T05:32:38.412Z,100987.62
2019-03-12T05:33:13.798Z,100986.30
2019-03-12T05:33:49.447Z,100982.04
2019-03-12T05:34:24.861Z,100984.11
2019-03-12T05:35:00.447Z,100985.34
2019-03-12T05:35:36.185Z,100981.98
2019-03-12T05:36:12.146Z,100988.41
2019-03-12T05:36:47.852Z,100987.94
2019-03-12T05:37:23.558Z,100988.78
2019-03-12T05:37:59.547Z,100987.48
2019-03-12T05:38:35.540Z,100991.33
2019-03-12T05:39:10.981Z,100984.55
2019-03-12T05:39:46.713Z,100982.00
2019-03-12T05:40:22.119Z,100986.23
2019-03-12T05:40:57.581Z,100983.61
2019-03-12T05:41:33.068Z,100989.66
2019-03-12T05:42:08.473Z,100987.05
2019-03-12T05:42:43.875Z,100984.95
2019-03-12T05:43:19.268Z,100988.36
2019-03-12T05:43:54.700Z,100986.30
2019-03-12T05:44:30.108Z,100978.97
2019-03-12T05:45:06.188Z,100977.20
2019-03-12T05:45:41.836Z,100980.28
2019-03-12T05:46:17.509Z,100976.81
2019-03-12T05:46:52.926Z,100972.09
2019-03-12T05:47:28.774Z,100972.06
2019-03-12T05:48:04.511Z,100986.10
2019-03-12T05:48:39.895Z,100975.55
2019-03-12T05:49:15.554Z,100975.14
2019-03-12T05:49:51.581Z,100980.68
2019-03-12T05:50:27.266Z,100983.20
2019-03-12T05:51:02.851Z,100975.12
2019-03-12T05:51:38.287Z,100980.18
2019-03-12T05:52:13.694Z,100982.34
2019-03-12T05:52:49.721Z,100978.48
2019-03-12T05:53:38.618Z,100977.25
2019-03-12T05:54:14.540Z,100983.21
2019-03-12T05:54:50.235Z,100977.66
2019-03-12T05:55:25.861Z,100978.09
2019-03-12T05:56:01.880Z,100976.81
2019-03-12T05:56:37.562Z,100973.80
2019-03-12T05:57:13.313Z,100973.38
2019-03-12T05:57:48.717Z,100978.97
2019-03-12T05:58:24.412Z,100977.30
2019-03-12T05:59:00.182Z,100973.45
2019-03-12T05:59:35.594Z,100976.02
2019-03-12T06:00:15.323Z,100971.75
2019-03-12T06:00:50.984Z,100975.61
2019-03-12T06:01:26.673Z,100971.84
2019-03-12T06:02:02.488Z,100976.45
2019-03-12T06:02:37.905Z,100979.47
2019-03-12T06:03:13.557Z,100967.55
2019-03-12T06:03:48.948Z,100976.53
2019-03-12T06:04:24.364Z,100972.63
2019-03-12T06:05:00.406Z,100972.27
2019-03-12T06:05:35.910Z,100975.66
2019-03-12T06:06:11.859Z,100982.04
2019-03-12T06:06:47.628Z,100981.27
2019-03-12T06:07:23.028Z,100979.56
2019-03-12T06:07:58.742Z,100983.02
2019-03-12T06:08:34.181Z,100985.55
2019-03-12T06:09:09.597Z,100985.13
2019-03-12T06:09:45.249Z,100979.50
2019-03-12T06:10:20.641Z,100980.34
2019-03-12T06:10:56.029Z,100982.89
2019-03-12T06:11:31.506Z,100983.75
2019-03-12T06:12:07.348Z,100978.20
2019-03-12T06:12:42.828Z,100991.86
2019-03-12T06:13:18.333Z,100983.80
2019-03-12T06:13:53.986Z,100988.10
2019-03-12T06:14:29.399Z,100988.19
2019-03-12T06:15:05.143Z,100983.97
2019-03-12T06:15:40.803Z,100986.97
2019-03-12T06:16:16.202Z,100983.56
2019-03-12T06:16:51.628Z,100986.13
2019-03-12T06:17:27.363Z,100983.97
2019-03-12T06:18:03.099Z,100981.82
2019-03-12T06:18:38.497Z,100977.15
2019-03-12T06:19:14.140Z,100980.66
2019-03-12T06:19:49.849Z,100983.61
2019-03-12T06:20:25.493Z,100977.20
2019-03-12T06:21:01.493Z,100981.90
2019-03-12T06:21:36.975Z,100984.44
2019-03-12T06:22:12.632Z,100977.21
2019-03-12T06:22:48.334Z,100981.00
2019-03-12T06:23:23.737Z,100981.84
2019-03-12T06:23:59.160Z,100975.08
2019-03-12T06:24:34.881Z,100977.15
2019-03-12T06:25:10.383Z,100987.00
2019-03-12T06:25:45.770Z,100969.83
2019-03-12T06:26:21.161Z,100978.02
2019-03-12T06:26:56.672Z,100981.05
2019-03-12T06:27:32.180Z,100971.62
2019-03-12T06:28:07.620Z,100985.30
2019-03-12T06:28:43.019Z,100976.82
2019-03-12T06:29:18.962Z,100974.28
2019-03-12T06:29:54.383Z,100979.77
2019-03-12T06:30:31.561Z,100976.80
2019-03-12T06:31:32.124Z,100967.81
2019-03-12T06:32:29.420Z,100979.33
2019-03-12T06:33:12.001Z,100972.52
2019-03-12T06:34:15.224Z,100977.66
2019-03-12T06:34:54.358Z,100977.66
2019-03-12T06:35:40.135Z,100976.79
2019-03-12T06:36:37.557Z,100976.02
2019-03-12T06:37:20.964Z,100984.06
2019-03-12T06:38:11.589Z,100975.16
2019-03-12T06:38:55.451Z,100979.91
2019-03-12T06:39:36.780Z,100973.03
2019-03-12T06:40:39.910Z,100967.97
2019-03-12T06:41:21.154Z,100967.51
2019-03-12T06:42:10.695Z,100974.78
2019-03-12T06:43:08.326Z,100968.34
2019-03-12T06:44:03.017Z,100971.68
2019-03-12T06:44:56.515Z,100971.29
2019-03-12T06:45:51.174Z,100966.59
2019-03-12T06:46:44.410Z,100970.80
2019-03-12T06:47:24.666Z,100969.08
2019-03-12T06:48:21.946Z,100972.03
2019-03-12T06:49:02.450Z,100968.66
2019-03-12T06:49:49.677Z,100965.66
2019-03-12T06:50:36.148Z,100966.99
2019-03-12T06:51:36.722Z,100961.45
2019-03-12T06:52:19.254Z,100960.07
2019-03-12T06:53:28.934Z,100953.20
2019-03-12T06:54:16.120Z,100957.53
2019-03-12T06:55:10.499Z,100945.69
2019-03-12T06:55:59.599Z,100950.74
2019-03-12T06:56:57.130Z,100937.05
2019-03-12T06:57:57.382Z,100941.31